createdAt,value
2024-04-13T00:02:07.567Z,11.00
2024-04-13T00:04:53.517Z,11.18
2024-04-13T00:07:59.696Z,11.13
2024-04-13T00:11:06.129Z,11.14
2024-04-13T00:14:11.970Z,11.15
2024-04-13T00:17:17.759Z,11.20
2024-04-13T00:20:24.129Z,11.26
2024-04-13T00:23:29.799Z,11.33
2024-04-13T00:26:35.167Z,11.40
2024-04-13T00:29:41.209Z,11.46
2024-04-13T00:32:47.097Z,11.41
2024-04-13T00:35:52.968Z,11.51
2024-04-13T00:38:58.784Z,11.40
2024-04-13T00:42:04.801Z,11.28
2024-04-13T00:45:10.972Z,11.25
2024-04-13T00:48:16.983Z,11.18
2024-04-13T00:51:28.139Z,11.14
2024-04-13T00:54:36.136Z,11.20
2024-04-13T00:57:42.121Z,11.22
2024-04-13T01:00:48.232Z,11.25
2024-04-13T01:03:54.045Z,11.18
2024-04-13T01:07:00.345Z,11.27
2024-04-13T01:10:06.721Z,11.27
2024-04-13T01:13:12.728Z,11.22
2024-04-13T01:16:18.683Z,11.19
2024-04-13T01:19:24.644Z,11.14
2024-04-13T01:22:32.030Z,11.11
2024-04-13T01:25:38.922Z,11.05
2024-04-13T01:28:45.050Z,10.91
2024-04-13T01:31:52.566Z,10.85
2024-04-13T01:34:58.392Z,10.90
2024-04-13T01:38:04.505Z,10.85
2024-04-13T01:41:11.088Z,10.79
2024-04-13T01:44:16.670Z,10.74
2024-04-13T01:47:22.673Z,10.74
2024-04-13T01:50:28.642Z,10.76
2024-04-13T01:53:34.473Z,10.77
2024-04-13T01:56:40.207Z,10.75
2024-04-13T01:59:45.674Z,10.87
2024-04-13T02:02:51.798Z,10.90
2024-04-13T02:05:57.826Z,10.96
2024-04-13T02:08:44.235Z,11.05
2024-04-13T02:11:31.455Z,11.08
2024-04-13T02:14:17.073Z,11.12
2024-04-13T02:17:03.568Z,11.13
2024-04-13T02:19:50.128Z,11.16
2024-04-13T02:22:36.837Z,11.10
2024-04-13T02:25:22.271Z,11.06
2024-04-13T02:28:08.127Z,10.98
2024-04-13T02:30:53.542Z,10.93
2024-04-13T02:36:26.580Z,10.88
2024-04-13T02:39:14.681Z,10.88
2024-04-13T02:42:00.680Z,10.92
2024-04-13T02:44:48.963Z,10.92
2024-04-13T04:39:41.678Z,9.45
2024-04-13T04:42:30.093Z,9.07
2024-04-13T04:45:16.333Z,9.50
2024-04-13T04:48:04.102Z,9.53
2024-04-13T04:50:57.559Z,9.62
2024-04-13T04:53:44.050Z,9.68
2024-04-13T04:56:30.137Z,9.76
2024-04-13T04:59:15.774Z,9.84
2024-04-13T05:02:02.300Z,9.91
2024-04-13T05:04:48.259Z,9.97
2024-04-13T05:07:34.370Z,10.10
2024-04-13T05:10:20.091Z,10.21
2024-04-13T05:13:06.334Z,10.33
2024-04-13T05:15:52.086Z,10.43
2024-04-13T05:18:38.903Z,10.50
2024-04-13T05:21:24.644Z,10.53
2024-04-13T05:24:11.080Z,10.54
2024-04-13T05:26:57.970Z,10.62
2024-04-13T05:29:43.811Z,10.64
2024-04-13T05:32:29.663Z,10.65
2024-04-13T05:35:19.776Z,10.68
2024-04-13T05:38:05.831Z,10.50
2024-04-13T05:41:12.226Z,10.71
2024-04-13T05:44:18.993Z,10.77
2024-04-13T05:47:25.287Z,10.85
2024-04-13T05:50:31.904Z,10.84
2024-04-13T05:53:37.720Z,10.97
2024-04-13T05:56:43.290Z,11.01
2024-04-13T05:59:49.379Z,11.02
2024-04-13T06:02:55.288Z,11.01
2024-04-13T06:06:04.448Z,11.07
2024-04-13T06:09:10.862Z,11.17
2024-04-13T06:12:16.686Z,11.23
2024-04-13T06:15:22.488Z,11.29
2024-04-13T06:18:28.659Z,11.35
2024-04-13T06:21:34.784Z,11.29
2024-04-13T06:24:40.791Z,11.57
2024-04-13T06:27:46.964Z,11.75
2024-04-13T06:30:53.313Z,11.96
2024-04-13T06:33:59.300Z,12.15
2024-04-13T06:37:05.061Z,12.30
2024-04-13T06:40:10.744Z,12.38
2024-04-13T06:43:16.515Z,12.46
2024-04-13T06:46:22.177Z,12.49
2024-04-13T06:49:28.043Z,12.13
2024-04-13T06:52:33.806Z,12.69
2024-04-13T06:55:39.979Z,12.85
2024-04-13T06:58:45.883Z,13.08
2024-04-13T07:01:51.981Z,13.37
2024-04-13T07:04:57.897Z,13.60
2024-04-13T07:08:03.689Z,13.96
2024-04-13T07:11:09.388Z,14.24
2024-04-13T07:14:15.176Z,14.50
2024-04-13T07:17:25.250Z,14.82
2024-04-13T07:20:31.285Z,15.17
2024-04-13T07:23:36.935Z,15.50
2024-04-13T07:26:42.713Z,15.84
2024-04-13T07:29:39.870Z,16.13
2024-04-13T07:32:46.019Z,16.33
2024-04-13T07:35:51.658Z,16.53
2024-04-13T07:38:57.567Z,16.74
2024-04-13T07:42:03.409Z,17.01
2024-04-13T07:45:10.248Z,17.17
2024-04-13T07:48:15.967Z,17.32
2024-04-13T07:51:22.031Z,17.41
2024-04-13T07:54:27.922Z,17.52
2024-04-13T07:57:34.114Z,17.58
2024-04-13T08:00:40.185Z,17.53
2024-04-13T08:03:46.132Z,17.49
2024-04-13T08:06:51.694Z,17.46
2024-04-13T08:10:01.429Z,17.46
2024-04-13T08:13:07.278Z,17.50
2024-04-13T08:16:13.804Z,17.55
2024-04-13T08:19:19.402Z,17.60
2024-04-13T08:22:26.072Z,17.66
2024-04-13T08:25:31.634Z,17.72
2024-04-13T08:28:37.930Z,17.78
2024-04-13T08:31:44.039Z,17.88
2024-04-13T08:34:49.836Z,17.97
2024-04-13T08:37:55.677Z,18.04
2024-04-13T08:41:06.716Z,18.10
2024-04-13T08:44:14.726Z,18.14
2024-04-13T08:47:22.975Z,18.06
2024-04-13T08:50:29.990Z,18.29
2024-04-13T08:53:17.321Z,18.40
2024-04-13T08:56:24.725Z,18.04
2024-04-13T08:59:32.534Z,18.46
2024-04-13T09:02:43.394Z,18.49
2024-04-13T09:05:49.893Z,18.17
2024-04-13T09:08:58.392Z,18.65
2024-04-13T09:12:04.643Z,18.67
2024-04-13T09:15:10.439Z,18.73
2024-04-13T09:18:18.376Z,18.69
2024-04-13T09:21:24.604Z,18.72
2024-04-13T09:24:30.379Z,18.73
2024-04-13T09:27:38.235Z,18.38
2024-04-13T09:30:44.361Z,18.71
2024-04-13T09:33:49.905Z,18.69
2024-04-13T09:36:56.331Z,18.79
2024-04-13T09:40:02.087Z,18.82
2024-04-13T09:43:11.473Z,18.81
2024-04-13T09:46:21.908Z,18.78
2024-04-13T09:49:29.056Z,18.69
2024-04-13T09:52:36.140Z,18.78
2024-04-13T09:55:42.088Z,18.86
2024-04-13T09:58:48.075Z,18.94
2024-04-13T10:01:54.067Z,18.99
2024-04-13T10:04:59.681Z,19.04
2024-04-13T10:11:22.391Z,19.11
2024-04-13T10:14:09.271Z,19.14
2024-04-13T10:16:57.597Z,19.22
2024-04-13T10:19:46.792Z,19.30
2024-04-13T10:22:38.382Z,19.39
2024-04-13T10:25:29.007Z,19.52
2024-04-13T10:28:22.612Z,19.61
2024-04-13T10:31:18.969Z,19.67
2024-04-13T10:34:05.071Z,19.68
2024-04-13T10:36:58.617Z,19.77
2024-04-13T10:40:03.393Z,19.76
2024-04-13T10:42:51.904Z,19.69
2024-04-13T10:45:39.777Z,19.69
2024-04-13T10:48:31.311Z,19.64
2024-04-13T10:51:17.769Z,19.64
2024-04-13T10:54:03.467Z,19.51
2024-04-13T10:56:54.406Z,19.60
2024-04-13T10:59:45.654Z,19.61
2024-04-13T11:02:32.287Z,19.61
2024-04-13T11:05:21.566Z,19.51
2024-04-13T11:08:09.741Z,19.45
2024-04-13T11:10:57.900Z,19.43
2024-04-13T11:13:45.206Z,19.39
2024-04-13T11:16:31.396Z,19.34
2024-04-13T11:19:21.900Z,19.38
2024-04-13T11:25:49.660Z,19.42
2024-04-13T11:28:55.896Z,19.34
2024-04-13T11:32:02.285Z,19.40
2024-04-13T11:35:08.111Z,19.43
2024-04-13T11:38:19.965Z,19.45
2024-04-13T11:41:06.196Z,19.49
2024-04-13T11:43:55.580Z,18.97
2024-04-13T11:46:41.882Z,19.50
2024-04-13T11:49:31.850Z,19.71
2024-04-13T11:52:19.623Z,19.77
2024-04-13T11:55:05.955Z,19.84
2024-04-13T11:58:11.643Z,19.91
2024-04-13T12:01:17.787Z,20.05
2024-04-13T12:04:24.145Z,20.16
2024-04-13T12:07:33.037Z,20.23
2024-04-13T12:10:39.053Z,20.20
2024-04-13T12:13:45.625Z,20.18
2024-04-13T12:16:51.582Z,20.29
2024-04-13T12:19:57.117Z,20.40
2024-04-13T12:23:43.003Z,20.61
2024-04-13T12:26:55.137Z,20.74
2024-04-13T12:29:41.209Z,20.71
2024-04-13T12:32:47.283Z,20.87
2024-04-13T12:35:53.148Z,20.88
2024-04-13T12:38:59.988Z,20.95
2024-04-13T12:42:05.887Z,20.61
2024-04-13T12:45:11.923Z,20.98
2024-04-13T12:48:17.978Z,20.97
2024-04-13T12:51:24.374Z,21.02
2024-04-13T12:54:29.921Z,21.05
2024-04-13T12:57:16.624Z,21.08
2024-04-13T13:00:05.271Z,21.15
2024-04-13T13:02:51.319Z,21.11
2024-04-13T13:05:37.317Z,21.05
2024-04-13T13:08:23.124Z,21.04
2024-04-13T13:11:08.798Z,21.05
2024-04-13T13:13:55.196Z,21.10
2024-04-13T13:16:40.927Z,21.15
2024-04-13T13:19:27.057Z,21.16
2024-04-13T13:22:13.696Z,21.18
2024-04-13T13:25:00.364Z,21.20
2024-04-13T13:27:46.399Z,21.18
2024-04-13T13:30:36.949Z,21.14
2024-04-13T13:33:22.898Z,21.13
2024-04-13T13:36:08.987Z,21.08
2024-04-13T13:39:14.493Z,21.04
2024-04-13T13:42:20.705Z,20.95
2024-04-13T13:45:06.581Z,20.87
2024-04-13T13:47:52.766Z,20.84
2024-04-13T13:50:38.797Z,20.83
2024-04-13T13:53:25.022Z,20.91
2024-04-13T13:56:10.904Z,21.03
2024-04-13T13:59:17.226Z,21.16
2024-04-13T14:02:23.306Z,21.24
2024-04-13T14:05:29.615Z,21.25
2024-04-13T14:08:15.158Z,21.28
2024-04-13T14:11:01.504Z,21.25
2024-04-13T14:13:48.218Z,21.21
2024-04-13T14:16:34.313Z,21.14
2024-04-13T14:19:20.050Z,21.13
2024-04-13T14:22:06.215Z,21.08
2024-04-13T14:24:52.037Z,21.05
2024-04-13T14:27:38.218Z,21.07
2024-04-13T14:30:24.029Z,21.08
2024-04-13T14:33:10.449Z,21.05
2024-04-13T14:36:00.196Z,21.03
2024-04-13T14:38:46.786Z,21.04
2024-04-13T14:41:32.779Z,21.08
2024-04-13T14:44:20.500Z,21.08
2024-04-13T14:47:08.931Z,21.12
2024-04-13T14:49:56.910Z,21.15
2024-04-13T14:53:02.892Z,21.20
2024-04-13T14:56:09.143Z,20.86
2024-04-13T14:58:57.137Z,21.26
2024-04-13T15:01:43.855Z,21.27
2024-04-13T15:04:34.227Z,20.59
2024-04-13T15:07:23.402Z,21.06
2024-04-13T15:10:09.133Z,21.21
2024-04-13T15:12:55.174Z,21.17
2024-04-13T15:15:49.868Z,21.11
2024-04-13T15:18:35.932Z,21.00
2024-04-13T15:21:22.050Z,21.05
2024-04-13T15:24:10.233Z,21.01
2024-04-13T15:26:57.686Z,20.98
2024-04-13T15:29:43.891Z,20.94
2024-04-13T15:32:29.922Z,20.86
2024-04-13T15:35:16.009Z,20.80
2024-04-13T15:38:02.896Z,20.13
2024-04-13T15:40:49.609Z,20.76
2024-04-13T15:43:35.574Z,20.68
2024-04-13T15:46:41.731Z,20.70
2024-04-13T15:49:46.874Z,20.68
2024-04-13T15:52:33.157Z,20.67
2024-04-13T15:55:18.821Z,20.65
2024-04-13T15:58:05.145Z,20.65
2024-04-13T16:01:11.337Z,20.57
2024-04-13T16:04:17.496Z,20.65
2024-04-13T16:07:24.456Z,20.65
2024-04-13T16:10:30.223Z,20.59
2024-04-13T16:13:36.942Z,20.59
2024-04-13T16:16:43.113Z,20.52
2024-04-13T16:19:48.708Z,20.44
2024-04-13T16:22:54.642Z,19.97
2024-04-13T16:26:01.423Z,20.28
2024-04-13T16:29:07.700Z,20.23
2024-04-13T16:32:14.986Z,20.09
2024-04-13T16:35:21.246Z,20.11
2024-04-13T16:38:26.911Z,20.07
2024-04-13T16:41:33.374Z,20.02
2024-04-13T16:44:39.068Z,19.94
2024-04-13T16:47:45.277Z,19.87
2024-04-13T16:50:51.138Z,19.80
2024-04-13T16:53:37.455Z,19.71
2024-04-13T16:56:43.559Z,19.68
2024-04-13T16:59:49.724Z,19.61
2024-04-13T17:02:56.727Z,19.58
2024-04-13T17:05:43.662Z,19.52
2024-04-13T17:08:29.962Z,19.47
2024-04-13T17:11:16.024Z,19.39
2024-04-13T17:14:01.674Z,19.29
2024-04-13T17:16:47.679Z,19.10
2024-04-13T17:19:34.538Z,19.06
2024-04-13T17:22:24.008Z,18.94
2024-04-13T17:25:29.578Z,18.80
2024-04-13T17:28:35.720Z,18.75
2024-04-13T17:31:41.538Z,18.69
2024-04-13T17:34:43.347Z,18.52
2024-04-13T17:37:49.028Z,18.42
2024-04-13T17:40:55.899Z,18.26
2024-04-13T17:44:01.608Z,18.15
2024-04-13T17:47:07.774Z,18.07
2024-04-13T17:50:16.070Z,18.01
2024-04-13T17:53:22.158Z,17.97
2024-04-13T17:56:28.052Z,17.90
2024-04-13T17:59:33.970Z,17.85
2024-04-13T18:02:39.836Z,17.83
2024-04-13T18:05:27.660Z,17.86
2024-04-13T18:08:13.456Z,17.91
2024-04-13T18:10:59.965Z,17.93
2024-04-13T18:13:46.111Z,17.94
2024-04-13T18:16:51.815Z,17.99
2024-04-13T18:19:58.328Z,18.02
2024-04-13T18:23:04.423Z,18.03
2024-04-13T18:26:11.227Z,18.03
2024-04-13T18:29:17.257Z,18.01
2024-04-13T18:32:02.982Z,17.98
2024-04-13T18:35:09.160Z,17.94
2024-04-13T18:38:14.927Z,17.89
2024-04-13T18:41:21.158Z,17.86
2024-04-13T18:44:27.350Z,17.11
2024-04-13T18:47:35.332Z,17.66
2024-04-13T18:50:41.429Z,17.66
2024-04-13T18:53:29.514Z,17.60
2024-04-13T18:56:37.099Z,17.51
2024-04-13T18:59:44.421Z,17.45
2024-04-13T19:02:50.390Z,17.40
2024-04-13T19:05:57.291Z,17.33
2024-04-13T19:09:03.432Z,17.27
2024-04-13T19:11:58.297Z,17.20
2024-04-13T19:15:04.701Z,17.14
2024-04-13T19:18:11.934Z,17.07
2024-04-13T19:21:19.503Z,16.58
2024-04-13T19:24:28.832Z,16.99
2024-04-13T19:27:35.720Z,16.96
2024-04-13T19:30:23.573Z,16.92
2024-04-13T19:33:30.310Z,16.90
2024-04-13T19:36:36.449Z,16.85
2024-04-13T19:39:42.860Z,16.81
2024-04-13T19:42:49.598Z,16.76
2024-04-13T19:45:55.681Z,16.71
2024-04-13T19:49:01.651Z,16.69
2024-04-13T19:52:08.192Z,16.68
2024-04-13T19:55:14.760Z,16.68
2024-04-13T19:58:20.837Z,16.64
2024-04-13T20:01:30.390Z,16.61
2024-04-13T20:04:36.492Z,16.55
2024-04-13T20:07:42.841Z,16.48
2024-04-13T20:10:48.757Z,16.44
2024-04-13T20:13:55.393Z,16.44
2024-04-13T20:16:59.681Z,16.39
2024-04-13T20:20:05.886Z,16.34
2024-04-13T20:23:12.085Z,16.32
2024-04-13T20:26:18.384Z,16.12
2024-04-13T20:29:24.388Z,16.19
2024-04-13T20:32:30.594Z,16.02
2024-04-13T20:35:36.250Z,16.04
2024-04-13T20:38:42.923Z,16.02
2024-04-13T20:41:48.779Z,16.01
2024-04-13T20:44:54.875Z,15.99
2024-04-13T20:48:01.148Z,16.00
2024-04-13T20:51:07.797Z,15.98
2024-04-13T20:54:14.074Z,15.92
2024-04-13T20:57:23.091Z,15.85
2024-04-13T21:00:29.304Z,15.79
2024-04-13T21:03:36.441Z,15.69
2024-04-13T21:06:42.111Z,15.66
2024-04-13T21:09:48.271Z,15.60
2024-04-13T21:12:55.014Z,15.54
2024-04-13T21:16:01.305Z,15.60
2024-04-13T21:19:08.360Z,15.51
2024-04-13T21:22:14.178Z,15.56
2024-04-13T21:25:19.783Z,15.50
2024-04-13T21:28:26.472Z,15.44
2024-04-13T21:31:32.634Z,15.38
2024-04-13T21:34:38.354Z,15.30
2024-04-13T21:37:44.311Z,15.24
2024-04-13T21:40:50.279Z,15.19
2024-04-13T21:43:55.983Z,15.16
2024-04-13T21:47:02.653Z,15.13
2024-04-13T21:50:08.366Z,15.10
2024-04-13T21:53:14.591Z,15.06
2024-04-13T21:56:20.364Z,15.03
2024-04-13T21:59:26.116Z,14.98
2024-04-13T22:02:31.520Z,14.34
2024-04-13T22:05:38.035Z,14.84
2024-04-13T22:08:51.192Z,14.61
2024-04-13T22:12:01.708Z,14.73
2024-04-13T22:15:10.775Z,14.69
2024-04-13T22:18:17.229Z,14.69
2024-04-13T22:21:22.768Z,14.68
2024-04-13T22:24:29.145Z,14.62
2024-04-13T22:27:35.229Z,14.63
2024-04-13T22:30:41.241Z,14.62
2024-04-13T22:33:48.089Z,14.57
2024-04-13T22:36:53.917Z,14.56
2024-04-13T22:39:59.402Z,14.54
2024-04-13T22:43:05.649Z,14.46
2024-04-13T22:45:51.363Z,14.41
2024-04-13T22:48:37.458Z,14.35
2024-04-13T22:51:23.474Z,14.38
2024-04-13T22:54:09.690Z,14.39
2024-04-13T22:56:56.309Z,14.36
2024-04-13T22:59:43.313Z,14.22
2024-04-13T23:02:29.231Z,14.26
2024-04-13T23:05:17.467Z,14.21
2024-04-13T23:08:04.349Z,14.18
2024-04-13T23:10:50.579Z,14.16
2024-04-13T23:13:36.242Z,14.04
2024-04-13T23:16:22.532Z,14.00
2024-04-13T23:19:08.275Z,13.89
2024-04-13T23:21:54.755Z,13.86
2024-04-13T23:24:40.656Z,13.72
2024-04-13T23:27:28.712Z,13.76
2024-04-13T23:30:14.578Z,13.19
2024-04-13T23:33:01.887Z,13.60
2024-04-13T23:36:00.836Z,13.62
2024-04-13T23:38:46.959Z,13.57
2024-04-13T23:41:32.702Z,13.48
2024-04-13T23:44:20.182Z,13.49
2024-04-13T23:47:05.804Z,13.49
2024-04-13T23:49:52.940Z,13.30
2024-04-13T23:52:38.775Z,13.48
2024-04-13T23:55:25.441Z,13.40
2024-04-13T23:58:11.440Z,13.46
